createdAt,value
2022-07-30T00:02:14.001Z,12.73
2022-07-30T00:04:43.777Z,12.80
2022-07-30T00:07:12.271Z,12.48
2022-07-30T00:09:40.885Z,10.85
2022-07-30T00:12:10.182Z,11.07
2022-07-30T00:14:38.909Z,13.35
2022-07-30T00:17:07.222Z,11.18
2022-07-30T00:19:35.597Z,10.77
2022-07-30T00:22:05.829Z,12.52
2022-07-30T00:24:34.080Z,10.10
2022-07-30T00:27:02.792Z,9.95
2022-07-30T00:29:31.729Z,10.10
2022-07-30T00:31:59.955Z,9.40
2022-07-30T00:34:28.157Z,10.40
2022-07-30T00:36:57.927Z,9.77
2022-07-30T00:39:52.936Z,11.82
2022-07-30T00:42:25.927Z,10.68
2022-07-30T00:44:54.360Z,12.32
2022-07-30T00:47:22.845Z,11.82
2022-07-30T00:49:51.073Z,11.32
2022-07-30T00:52:19.373Z,11.95
2022-07-30T00:54:47.578Z,12.02
2022-07-30T00:57:17.241Z,13.23
2022-07-30T00:59:45.424Z,13.05
2022-07-30T01:02:13.726Z,10.43
2022-07-30T01:04:41.989Z,11.70
2022-07-30T01:07:10.298Z,10.85
2022-07-30T01:09:38.548Z,11.10
2022-07-30T01:12:09.938Z,14.40
2022-07-30T01:14:41.274Z,11.18
2022-07-30T01:17:09.968Z,10.90
2022-07-30T01:19:49.841Z,11.32
2022-07-30T01:22:25.197Z,11.02
2022-07-30T01:25:06.942Z,10.90
2022-07-30T01:27:42.765Z,16.48
2022-07-30T01:30:12.921Z,15.10
2022-07-30T01:32:45.107Z,12.48
2022-07-30T01:35:14.720Z,15.70
2022-07-30T01:37:45.674Z,17.23
2022-07-30T01:40:15.754Z,16.52
2022-07-30T01:42:47.517Z,17.77
2022-07-30T01:45:16.973Z,16.45
2022-07-30T01:47:46.347Z,18.25
2022-07-30T01:50:16.508Z,20.67
2022-07-30T01:52:49.645Z,19.58
2022-07-30T01:55:21.661Z,18.17
2022-07-30T01:57:52.256Z,20.48
2022-07-30T02:00:20.879Z,21.17
2022-07-30T02:02:51.258Z,22.63
2022-07-30T02:05:19.752Z,22.05
2022-07-30T02:07:54.004Z,18.83
2022-07-30T02:10:29.905Z,19.80
2022-07-30T02:13:06.030Z,19.95
2022-07-30T02:15:39.914Z,25.13
2022-07-30T02:18:14.730Z,23.98
2022-07-30T02:20:48.741Z,26.58
2022-07-30T02:23:19.474Z,30.20
2022-07-30T02:25:52.819Z,34.13
2022-07-30T02:28:27.388Z,36.17
2022-07-30T02:31:01.562Z,43.28
2022-07-30T02:33:39.267Z,44.95
2022-07-30T02:36:18.591Z,45.55
2022-07-30T02:38:50.697Z,44.47
2022-07-30T02:41:21.763Z,44.33
2022-07-30T02:43:54.923Z,48.85
2022-07-30T02:46:25.875Z,51.13
2022-07-30T02:49:14.927Z,48.15
2022-07-30T02:51:44.207Z,52.17
2022-07-30T02:54:15.398Z,51.55
2022-07-30T02:56:45.658Z,49.45
2022-07-30T02:59:16.673Z,71.63
2022-07-30T03:01:46.220Z,58.67
2022-07-30T03:04:15.063Z,57.30
2022-07-30T03:06:44.301Z,52.90
2022-07-30T03:09:13.618Z,46.33
2022-07-30T03:11:46.020Z,46.22
2022-07-30T03:14:15.817Z,47.67
2022-07-30T03:16:48.944Z,42.63
2022-07-30T03:19:21.556Z,44.15
2022-07-30T03:21:50.818Z,43.42
2022-07-30T03:24:25.752Z,44.38
2022-07-30T03:26:56.726Z,41.55
2022-07-30T03:29:28.882Z,44.55
2022-07-30T03:31:58.073Z,42.28
2022-07-30T03:34:28.863Z,40.70
2022-07-30T03:36:57.788Z,40.00
2022-07-30T03:39:27.932Z,37.20
2022-07-30T03:41:56.997Z,38.78
2022-07-30T03:44:28.333Z,38.90
2022-07-30T03:46:59.161Z,41.03
2022-07-30T03:49:29.319Z,38.13
2022-07-30T03:51:57.601Z,40.97
2022-07-30T03:54:27.028Z,38.83
2022-07-30T03:57:08.121Z,35.58
2022-07-30T03:59:46.846Z,36.08
2022-07-30T04:02:15.136Z,37.65
2022-07-30T04:04:57.866Z,34.30
2022-07-30T04:07:26.133Z,35.08
2022-07-30T04:09:54.654Z,32.75
2022-07-30T04:12:36.058Z,28.45
2022-07-30T04:16:05.606Z,31.45
2022-07-30T04:18:02.118Z,29.02
2022-07-30T04:20:37.767Z,28.17
2022-07-30T04:23:06.853Z,27.77
2022-07-30T04:25:35.348Z,26.60
2022-07-30T04:28:05.015Z,26.58
2022-07-30T04:30:35.326Z,27.10
2022-07-30T04:33:04.521Z,27.40
2022-07-30T04:36:08.895Z,27.02
2022-07-30T04:38:39.095Z,27.15
2022-07-30T04:41:07.625Z,27.88
2022-07-30T04:44:35.596Z,27.80
2022-07-30T04:47:26.423Z,26.50
2022-07-30T04:50:44.366Z,28.10
2022-07-30T04:53:15.378Z,29.35
2022-07-30T04:55:50.534Z,28.33
2022-07-30T04:58:45.953Z,28.08
2022-07-30T05:01:20.089Z,28.85
2022-07-30T05:04:16.481Z,27.33
2022-07-30T05:06:46.909Z,26.35
2022-07-30T05:10:06.902Z,25.58
2022-07-30T05:12:38.285Z,28.42
2022-07-30T05:15:08.253Z,28.08
2022-07-30T05:17:37.802Z,29.30
2022-07-30T05:20:11.801Z,31.17
2022-07-30T05:22:56.736Z,31.33
2022-07-30T05:25:25.952Z,27.45
2022-07-30T05:27:59.186Z,28.35
2022-07-30T05:30:27.914Z,28.30
2022-07-30T05:32:59.296Z,28.65
2022-07-30T05:35:33.457Z,26.33
2022-07-30T05:38:01.686Z,25.90
2022-07-30T05:40:35.306Z,25.83
2022-07-30T05:43:15.924Z,25.90
2022-07-30T05:45:44.363Z,25.05
2022-07-30T05:48:12.904Z,24.23
2022-07-30T05:50:42.881Z,26.27
2022-07-30T05:53:11.815Z,23.15
2022-07-30T05:56:14.356Z,21.00
2022-07-30T05:59:05.688Z,21.13
2022-07-30T06:02:06.890Z,18.80
2022-07-30T06:05:04.968Z,18.67
2022-07-30T06:07:35.427Z,18.10
2022-07-30T06:10:05.650Z,17.33
2022-07-30T06:12:34.021Z,17.65
2022-07-30T06:15:03.582Z,16.90
2022-07-30T06:17:42.051Z,15.75
2022-07-30T06:20:19.513Z,15.85
2022-07-30T06:23:08.290Z,15.10
2022-07-30T06:26:09.026Z,14.57
2022-07-30T06:28:38.967Z,13.93
2022-07-30T06:31:19.369Z,13.95
2022-07-30T06:33:48.302Z,12.98
2022-07-30T06:36:16.729Z,15.48
2022-07-30T06:38:54.805Z,12.57
2022-07-30T06:41:34.491Z,10.75
2022-07-30T06:44:02.727Z,9.85
2022-07-30T06:47:09.194Z,9.55
2022-07-30T06:49:40.735Z,9.30
2022-07-30T06:52:15.615Z,7.57
2022-07-30T06:54:51.398Z,7.00
2022-07-30T06:57:42.307Z,6.32
2022-07-30T07:00:47.658Z,6.85
2022-07-30T07:03:18.080Z,6.40
2022-07-30T07:05:46.794Z,5.43
2022-07-30T07:08:15.306Z,5.07
2022-07-30T07:10:50.483Z,5.13
2022-07-30T07:13:29.746Z,5.60
2022-07-30T07:16:25.968Z,4.75
2022-07-30T07:18:56.690Z,4.95
2022-07-30T07:21:25.237Z,5.70
2022-07-30T07:24:00.359Z,5.88
2022-07-30T07:26:48.866Z,4.65
2022-07-30T07:29:17.118Z,4.40
2022-07-30T07:32:06.520Z,5.88
2022-07-30T07:34:33.925Z,5.20
2022-07-30T07:37:02.654Z,5.03
2022-07-30T07:39:31.097Z,4.70
2022-07-30T07:42:00.799Z,5.50
2022-07-30T07:44:31.465Z,5.22
2022-07-30T07:47:00.156Z,4.75
2022-07-30T07:49:33.456Z,5.20
2022-07-30T07:52:02.492Z,5.40
2022-07-30T07:54:30.740Z,4.15
2022-07-30T07:57:01.450Z,4.53
2022-07-30T07:59:42.908Z,4.68
2022-07-30T08:02:16.787Z,4.30
2022-07-30T08:04:53.923Z,4.15
2022-07-30T08:07:49.046Z,4.10
2022-07-30T08:10:26.344Z,4.47
2022-07-30T08:13:49.038Z,4.57
2022-07-30T08:16:32.382Z,4.72
2022-07-30T08:19:15.540Z,4.72
2022-07-30T08:21:51.885Z,4.60
2022-07-30T08:24:20.111Z,4.50
2022-07-30T08:26:48.386Z,4.20
2022-07-30T08:29:18.321Z,4.40
2022-07-30T08:31:51.260Z,3.15
2022-07-30T08:34:25.683Z,3.85
2022-07-30T08:36:55.118Z,4.18
2022-07-30T08:39:23.361Z,5.18
2022-07-30T08:41:52.392Z,4.20
2022-07-30T08:44:22.585Z,3.92
2022-07-30T08:46:56.185Z,4.97
2022-07-30T08:49:37.574Z,6.75
2022-07-30T08:52:08.665Z,6.30
2022-07-30T08:54:42.372Z,4.78
2022-07-30T08:57:11.130Z,5.18
2022-07-30T08:59:59.429Z,6.25
2022-07-30T09:02:34.460Z,4.80
2022-07-30T09:05:07.520Z,4.65
2022-07-30T09:07:37.222Z,8.70
2022-07-30T09:10:09.550Z,5.03
2022-07-30T09:13:23.537Z,6.68
2022-07-30T09:15:53.153Z,5.57
2022-07-30T09:18:48.225Z,4.97
2022-07-30T09:21:19.094Z,4.90
2022-07-30T09:23:59.235Z,4.20
2022-07-30T09:27:05.158Z,5.40
2022-07-30T09:29:59.370Z,6.90
2022-07-30T09:32:52.853Z,5.57
2022-07-30T09:35:29.968Z,5.07
2022-07-30T09:38:27.911Z,6.50
2022-07-30T09:41:36.212Z,5.28
2022-07-30T09:44:11.874Z,5.28
2022-07-30T09:46:47.973Z,4.40
2022-07-30T09:49:25.675Z,6.30
2022-07-30T09:51:56.886Z,5.20
2022-07-30T09:54:51.368Z,5.32
2022-07-30T09:57:25.787Z,4.18
2022-07-30T09:59:58.095Z,6.70
2022-07-30T10:02:33.029Z,5.20
2022-07-30T10:05:59.932Z,4.97
2022-07-30T10:08:42.554Z,4.68
2022-07-30T10:11:16.350Z,4.75
2022-07-30T10:13:45.863Z,4.13
2022-07-30T10:16:14.325Z,4.50
2022-07-30T10:18:44.854Z,9.00
2022-07-30T10:21:32.653Z,3.95
2022-07-30T10:25:16.292Z,8.10
2022-07-30T10:28:05.909Z,4.28
2022-07-30T10:30:35.598Z,4.07
2022-07-30T10:33:04.414Z,3.90
2022-07-30T10:35:38.045Z,6.90
2022-07-30T10:38:13.790Z,5.85
2022-07-30T10:40:48.841Z,5.55
2022-07-30T10:43:39.548Z,4.28
2022-07-30T10:46:19.924Z,5.13
2022-07-30T10:48:51.547Z,3.78
2022-07-30T10:51:34.353Z,4.97
2022-07-30T10:54:03.209Z,3.42
2022-07-30T10:56:31.601Z,3.67
2022-07-30T10:59:07.899Z,3.50
2022-07-30T11:02:10.675Z,5.97
2022-07-30T11:04:40.452Z,6.38
2022-07-30T11:07:31.627Z,4.70
2022-07-30T11:10:05.942Z,4.13
2022-07-30T11:12:55.774Z,3.55
2022-07-30T11:15:45.472Z,9.13
2022-07-30T11:18:16.666Z,10.73
2022-07-30T11:21:05.810Z,25.45
2022-07-30T11:23:42.900Z,15.70
2022-07-30T11:26:14.309Z,5.20
2022-07-30T11:28:45.567Z,5.53
2022-07-30T11:31:54.981Z,4.32
2022-07-30T11:34:31.324Z,6.05
2022-07-30T11:37:21.609Z,5.50
2022-07-30T11:40:11.014Z,3.78
2022-07-30T11:42:41.425Z,6.18
2022-07-30T11:45:29.521Z,4.28
2022-07-30T11:48:04.072Z,3.25
2022-07-30T11:50:35.581Z,3.13
2022-07-30T11:53:05.462Z,2.97
2022-07-30T11:55:37.069Z,6.90
2022-07-30T11:58:08.879Z,5.32
2022-07-30T12:00:39.755Z,4.68
2022-07-30T12:04:01.433Z,4.05
2022-07-30T12:06:32.088Z,5.28
2022-07-30T12:09:28.825Z,4.82
2022-07-30T12:11:57.610Z,5.82
2022-07-30T12:14:50.723Z,5.10
2022-07-30T12:17:18.952Z,4.15
2022-07-30T12:19:49.979Z,3.40
2022-07-30T12:22:19.719Z,3.88
2022-07-30T12:24:47.962Z,3.30
2022-07-30T12:27:18.490Z,3.47
2022-07-30T12:29:46.819Z,3.50
2022-07-30T12:32:15.092Z,5.45
2022-07-30T12:34:55.685Z,3.03
2022-07-30T12:37:25.532Z,5.82
2022-07-30T12:40:10.528Z,5.03
2022-07-30T12:42:51.648Z,5.20
2022-07-30T12:45:30.511Z,3.42
2022-07-30T12:48:18.710Z,4.95
2022-07-30T12:50:46.933Z,4.47
2022-07-30T12:53:16.601Z,5.03
2022-07-30T12:55:44.965Z,5.38
2022-07-30T12:58:13.190Z,3.97
2022-07-30T13:00:52.092Z,4.10
2022-07-30T13:03:24.931Z,4.32
2022-07-30T13:05:55.247Z,3.58
2022-07-30T13:08:53.911Z,8.55
2022-07-30T13:11:24.055Z,4.60
2022-07-30T13:13:53.161Z,5.22
2022-07-30T13:16:22.299Z,7.60
2022-07-30T13:18:50.643Z,5.78
2022-07-30T13:21:18.897Z,4.57
2022-07-30T13:23:47.123Z,4.75
2022-07-30T13:26:17.036Z,4.50
2022-07-30T13:28:46.527Z,5.55
2022-07-30T13:31:15.396Z,8.75
2022-07-30T13:33:44.130Z,5.55
2022-07-30T13:36:12.410Z,3.83
2022-07-30T13:38:40.707Z,4.53
2022-07-30T13:41:09.225Z,4.25
2022-07-30T13:43:41.772Z,5.47
2022-07-30T13:46:10.318Z,4.88
2022-07-30T13:48:38.923Z,3.58
2022-07-30T13:51:07.388Z,5.47
2022-07-30T13:53:35.705Z,3.88
2022-07-30T13:56:04.106Z,6.35
2022-07-30T13:58:36.062Z,4.40
2022-07-30T14:01:07.628Z,5.60
2022-07-30T14:03:36.269Z,4.18
2022-07-30T14:06:11.286Z,5.18
2022-07-30T14:08:39.782Z,4.15
2022-07-30T14:11:08.289Z,5.07
2022-07-30T14:13:36.581Z,5.70
2022-07-30T14:16:22.647Z,4.95
2022-07-30T14:18:55.627Z,5.90
2022-07-30T14:21:23.885Z,4.07
2022-07-30T14:23:52.110Z,6.38
2022-07-30T14:26:20.462Z,5.03
2022-07-30T14:28:48.729Z,4.50
2022-07-30T14:31:18.465Z,4.32
2022-07-30T14:33:46.639Z,4.43
2022-07-30T14:36:17.019Z,4.70
2022-07-30T14:38:46.325Z,4.38
2022-07-30T14:41:14.518Z,4.38
2022-07-30T14:43:42.710Z,3.78
2022-07-30T14:46:10.947Z,5.53
2022-07-30T14:48:40.622Z,5.40
2022-07-30T14:51:34.744Z,6.63
2022-07-30T14:54:55.690Z,4.18
2022-07-30T14:57:23.923Z,5.68
2022-07-30T14:59:56.595Z,4.50
2022-07-30T15:03:43.839Z,3.50
2022-07-30T15:06:40.793Z,5.25
2022-07-30T15:10:09.238Z,5.38
2022-07-30T15:13:02.357Z,6.88
2022-07-30T15:15:38.203Z,5.22
2022-07-30T15:18:32.522Z,5.60
2022-07-30T15:21:01.206Z,7.90
2022-07-30T15:23:30.969Z,5.80
2022-07-30T15:26:24.594Z,6.75
2022-07-30T15:28:52.799Z,5.40
2022-07-30T15:31:21.041Z,6.03
2022-07-30T15:34:14.643Z,4.60
2022-07-30T15:36:42.954Z,5.47
2022-07-30T15:39:13.414Z,5.93
2022-07-30T15:41:44.186Z,5.38
2022-07-30T15:44:13.732Z,6.93
2022-07-30T15:50:48.747Z,4.80
2022-07-30T15:53:17.747Z,4.20
2022-07-30T15:55:47.744Z,4.90
2022-07-30T15:58:17.748Z,3.53
2022-07-30T16:00:46.263Z,4.13
2022-07-30T16:03:14.611Z,4.03
2022-07-30T16:05:52.132Z,5.25
2022-07-30T16:08:22.366Z,4.75
2022-07-30T16:10:51.991Z,3.58
2022-07-30T16:13:20.382Z,6.03
2022-07-30T16:15:48.607Z,3.30
2022-07-30T16:18:16.891Z,6.65
2022-07-30T16:20:47.180Z,4.22
2022-07-30T16:23:20.833Z,3.40
2022-07-30T16:25:51.026Z,3.33
2022-07-30T16:28:19.325Z,8.13
2022-07-30T16:30:51.089Z,3.53
2022-07-30T16:33:21.129Z,3.83
2022-07-30T16:35:52.422Z,4.50
2022-07-30T16:38:23.058Z,4.55
2022-07-30T16:40:52.953Z,3.78
2022-07-30T16:43:26.950Z,5.15
2022-07-30T16:45:55.198Z,3.80
2022-07-30T16:48:23.429Z,3.50
2022-07-30T16:52:08.168Z,4.28
2022-07-30T16:54:36.342Z,4.47
2022-07-30T16:57:10.259Z,4.75
2022-07-30T16:59:43.760Z,3.90
2022-07-30T17:02:12.308Z,5.68
2022-07-30T17:04:41.460Z,5.00
2022-07-30T17:07:14.572Z,3.22
2022-07-30T17:10:11.092Z,3.20
2022-07-30T17:12:41.412Z,3.45
2022-07-30T17:15:19.037Z,3.63
2022-07-30T17:17:50.947Z,6.35
2022-07-30T17:21:11.375Z,4.95
2022-07-30T17:23:39.815Z,4.07
2022-07-30T17:26:10.289Z,5.25
2022-07-30T17:28:40.002Z,4.82
2022-07-30T17:32:01.630Z,5.40
2022-07-30T17:34:30.122Z,4.07
2022-07-30T17:37:49.374Z,3.35
2022-07-30T17:40:29.398Z,3.95
2022-07-30T17:43:03.837Z,3.40
2022-07-30T17:45:37.353Z,4.63
2022-07-30T17:48:06.670Z,3.42
2022-07-30T17:50:35.719Z,4.03
2022-07-30T17:53:05.845Z,3.58
2022-07-30T17:55:34.981Z,4.03
2022-07-30T17:58:03.618Z,5.07
2022-07-30T18:00:31.914Z,6.07
2022-07-30T18:03:01.634Z,5.03
2022-07-30T18:05:32.852Z,3.85
2022-07-30T18:08:01.085Z,3.65
2022-07-30T18:10:29.304Z,4.05
2022-07-30T18:12:57.579Z,4.68
2022-07-30T18:15:25.888Z,4.03
2022-07-30T18:17:54.190Z,6.15
2022-07-30T18:20:23.794Z,3.50
2022-07-30T18:22:51.994Z,3.72
2022-07-30T18:25:20.246Z,3.70
2022-07-30T18:27:52.372Z,3.67
2022-07-30T18:30:20.718Z,3.50
2022-07-30T18:32:49.437Z,3.85
2022-07-30T18:35:18.374Z,4.13
2022-07-30T18:37:48.264Z,3.60
2022-07-30T18:40:23.727Z,4.07
2022-07-30T18:42:52.569Z,4.03
2022-07-30T18:45:21.238Z,4.90
2022-07-30T18:47:49.709Z,4.82
2022-07-30T18:50:19.089Z,4.60
2022-07-30T18:52:48.893Z,3.90
2022-07-30T18:55:17.928Z,3.92
2022-07-30T18:57:46.089Z,4.95
2022-07-30T19:00:34.204Z,7.28
2022-07-30T19:03:04.288Z,4.10
2022-07-30T19:05:32.603Z,4.38
2022-07-30T19:08:02.145Z,4.03
2022-07-30T19:10:30.347Z,4.20
2022-07-30T19:12:58.562Z,5.68
2022-07-30T19:15:27.202Z,4.47
2022-07-30T19:17:55.493Z,4.47
2022-07-30T19:20:24.290Z,4.68
2022-07-30T19:22:53.282Z,5.20
2022-07-30T19:25:23.012Z,6.18
2022-07-30T19:27:51.233Z,5.82
2022-07-30T19:30:19.461Z,5.10
2022-07-30T19:32:47.671Z,5.18
2022-07-30T19:35:16.084Z,4.80
2022-07-30T19:37:44.265Z,6.18
2022-07-30T19:40:13.655Z,7.05
2022-07-30T19:42:43.308Z,7.43
2022-07-30T19:45:13.145Z,6.53
2022-07-30T19:47:42.258Z,7.03
2022-07-30T19:50:11.957Z,6.55
2022-07-30T19:52:40.627Z,6.03
2022-07-30T19:55:35.209Z,7.97
2022-07-30T19:58:15.909Z,6.85
2022-07-30T20:00:49.257Z,7.32
2022-07-30T20:03:26.086Z,8.13
2022-07-30T20:06:00.117Z,7.32
2022-07-30T20:08:28.659Z,12.68
2022-07-30T20:10:59.109Z,9.40
2022-07-30T20:13:45.450Z,9.10
2022-07-30T20:16:15.912Z,7.28
2022-07-30T20:18:45.828Z,8.45
2022-07-30T20:21:56.101Z,7.72
2022-07-30T20:24:25.628Z,5.70
2022-07-30T20:26:53.904Z,8.48
2022-07-30T20:29:23.609Z,9.93
2022-07-30T20:31:53.370Z,12.30
2022-07-30T20:34:25.751Z,10.27
2022-07-30T20:36:56.483Z,9.02
2022-07-30T20:39:25.447Z,9.02
2022-07-30T20:42:07.804Z,8.95
2022-07-30T20:44:39.037Z,9.57
2022-07-30T20:47:12.169Z,11.57
2022-07-30T20:49:41.311Z,9.57
2022-07-30T20:52:10.679Z,8.93
2022-07-30T20:54:43.689Z,9.32
2022-07-30T20:57:15.891Z,12.25
2022-07-30T20:59:49.821Z,10.00
2022-07-30T21:02:18.654Z,9.70
2022-07-30T21:04:59.699Z,9.35
2022-07-30T21:07:28.146Z,12.13
2022-07-30T21:10:05.626Z,9.75
2022-07-30T21:12:36.330Z,9.98
2022-07-30T21:15:23.921Z,9.38
2022-07-30T21:17:52.918Z,9.68
2022-07-30T21:20:27.789Z,9.27
2022-07-30T21:22:56.459Z,10.10
2022-07-30T21:25:33.000Z,10.85
2022-07-30T21:28:02.798Z,12.07
2022-07-30T21:30:33.010Z,9.77
2022-07-30T21:33:01.205Z,9.53
2022-07-30T21:35:31.776Z,9.63
2022-07-30T21:38:00.544Z,9.02
2022-07-30T21:40:29.412Z,10.17
2022-07-30T21:42:57.683Z,10.53
2022-07-30T21:45:28.364Z,11.07
2022-07-30T21:48:10.884Z,14.75
2022-07-30T21:50:40.056Z,11.93
2022-07-30T21:53:08.777Z,12.07
2022-07-30T21:55:39.219Z,11.03
2022-07-30T21:58:25.803Z,11.13
2022-07-30T22:01:14.991Z,11.30
2022-07-30T22:06:38.319Z,11.90
2022-07-30T22:09:19.219Z,12.37
2022-07-30T22:12:01.015Z,12.27
2022-07-30T22:14:30.311Z,15.33
2022-07-30T22:17:00.406Z,12.77
2022-07-30T22:19:30.093Z,12.63
2022-07-30T22:21:58.265Z,12.50
2022-07-30T22:24:31.965Z,11.93
2022-07-30T22:27:01.872Z,12.27
2022-07-30T22:29:42.537Z,12.03
2022-07-30T22:32:11.014Z,12.17
2022-07-30T22:34:40.610Z,11.93
2022-07-30T22:37:12.454Z,11.57
2022-07-30T22:39:51.760Z,11.63
2022-07-30T22:42:23.861Z,11.07
2022-07-30T22:44:53.167Z,12.07
2022-07-30T22:47:50.650Z,12.20
2022-07-30T22:50:14.824Z,12.57
2022-07-30T22:55:33.958Z,11.53
2022-07-30T22:58:02.195Z,12.97
2022-07-30T23:00:30.603Z,11.63
2022-07-30T23:03:00.853Z,12.10
2022-07-30T23:05:31.963Z,11.43
2022-07-30T23:08:03.631Z,11.03
2022-07-30T23:10:32.158Z,10.63
2022-07-30T23:12:30.688Z,11.70
2022-07-30T23:12:31.607Z,11.60
2022-07-30T23:13:00.379Z,11.23
2022-07-30T23:15:28.773Z,11.50
2022-07-30T23:17:57.032Z,12.20
2022-07-30T23:20:25.263Z,11.13
2022-07-30T23:22:54.990Z,12.10
2022-07-30T23:25:23.173Z,10.63
2022-07-30T23:27:51.957Z,11.47
2022-07-30T23:30:20.224Z,11.97
2022-07-30T23:32:48.421Z,11.40
2022-07-30T23:35:16.690Z,13.53
2022-07-30T23:37:48.310Z,12.23
2022-07-30T23:40:19.802Z,11.23
2022-07-30T23:42:50.757Z,11.03
2022-07-30T23:45:19.413Z,10.97
2022-07-30T23:48:01.737Z,10.63
2022-07-30T23:50:32.449Z,11.73
2022-07-30T23:53:01.293Z,12.30
2022-07-30T23:55:32.355Z,13.03
2022-07-30T23:58:01.073Z,12.20
